Wrangell, AK

5:35 AM AKDT on April 27, 2017 (GMT -0800)
Wrangell

Weather History for PAWG - September, 2012

Change the Weather History Date:

Wednesday, September 12, 2012

  Actual Average Record
Temperature  
Mean Temperature 52 °F -  
Max Temperature 55 °F 58 °F 66 °F (1956)
Min Temperature 50 °F 44 °F 34 °F (1966)
Degree Days  
Heating Degree Days 12    
Growing Degree Days 2 (Base 50)    
Moisture  
Dew Point 49 °F    
Average Humidity 85    
Maximum Humidity 94    
Minimum Humidity 77    
Precipitation  
Precipitation 0.00 in - - ()
Sea Level Pressure  
Sea Level Pressure 30.06 in    
Wind  
Wind Speed 7 mph (ESE)    
Max Wind Speed 18 mph    
Max Gust Speed 25 mph    
Visibility 8 miles    
Events      
Averages and records for this station are not official NWS values.
T = Trace of Precipitation, MM = Missing Value Source: NWS Daily Summary

Daily Weather History Graph

Daily Weather History Graph

Search for Another Location

Airport or City:

Trip Planner

Search our weather history database for the weather conditions in past years. The results will help you decide how hot, cold, wet, or windy it might be!

Date:

Astronomy

Sep. 12, 2012 Rise Set
Actual Time 6:16 AM AKDT 7:13 PM AKDT
Civil Twilight 5:37 AM AKDT 7:51 PM AKDT
Nautical Twilight 4:50 AM AKDT 8:38 PM AKDT
Astronomical Twilight 3:59 AM AKDT 9:29 PM AKDT
Moon 2:07 AM AKDT (9/12) 5:30 PM AKDT (9/12)
Length of Visible Light 14h 14m
Length of Day
12h 57m
Waning Crescent, 12% of the Moon is Illuminated
Sep 12
Waning Crescent
Sep 15
New
Sep 22
First Quarter
Sep 29
Full
Oct 7
Last Quarter

Hourly Weather History & Observations

Time (AKDT) Temp. Dew Point Humidity Pressure Visibility Wind Dir Wind Speed Gust Speed Precip Events Conditions
12:16 AM 50.0 °F 46.4 °F 87% 30.12 in 10.0 mi South 3.5 mph - N/A   Overcast
12:36 AM 51.8 °F 46.4 °F 82% 30.12 in 10.0 mi Calm Calm - N/A   Overcast
12:56 AM 51.8 °F 46.4 °F 82% 30.11 in 9.0 mi SE 5.8 mph - N/A   Overcast
1:16 AM 51.8 °F 46.4 °F 82% 30.09 in 8.0 mi SE 12.7 mph 18.4 mph N/A   Overcast
1:36 AM 51.8 °F 46.4 °F 82% 30.09 in 7.0 mi ESE 11.5 mph - N/A   Overcast
1:56 AM 51.8 °F 46.4 °F 82% 30.10 in 7.0 mi SSW 6.9 mph - N/A   Overcast
2:16 AM 51.8 °F 46.4 °F 82% 30.09 in 9.0 mi Calm Calm - N/A   Mostly Cloudy
2:36 AM 51.8 °F 46.4 °F 82% 30.07 in 8.0 mi SSE 10.4 mph - N/A   Overcast
2:56 AM 53.6 °F 46.4 °F 77% 30.06 in 10.0 mi ESE 15.0 mph 19.6 mph N/A   Overcast
3:16 AM 53.6 °F 46.4 °F 77% 30.07 in 10.0 mi SE 10.4 mph - N/A   Overcast
3:36 AM 51.8 °F 46.4 °F 82% 30.07 in 9.0 mi SSE 6.9 mph - N/A   Overcast
3:56 AM 51.8 °F 46.4 °F 82% 30.07 in 8.0 mi South 5.8 mph - N/A   Overcast
4:16 AM 51.8 °F 46.4 °F 82% 30.07 in 8.0 mi SSE 5.8 mph - N/A   Overcast
4:36 AM 51.8 °F 46.4 °F 82% 30.05 in 10.0 mi SE 10.4 mph 18.4 mph N/A   Overcast
4:56 AM 51.8 °F 46.4 °F 82% 30.04 in 10.0 mi South 8.1 mph 17.3 mph N/A   Overcast
5:16 AM 51.8 °F 46.4 °F 82% 30.03 in 9.0 mi ESE 16.1 mph 20.7 mph N/A   Overcast
5:36 AM 51.8 °F 46.4 °F 82% 30.03 in 9.0 mi ESE 17.3 mph 24.2 mph N/A   Overcast
5:56 AM 51.8 °F 46.4 °F 82% 30.03 in 7.0 mi ESE 15.0 mph 23.0 mph N/A   Overcast
6:16 AM 51.8 °F 46.4 °F 82% 30.03 in 7.0 mi ESE 15.0 mph - N/A   Overcast
6:36 AM 51.8 °F 48.2 °F 88% 30.02 in 7.0 mi ESE 15.0 mph 21.9 mph N/A   Overcast
6:56 AM 53.6 °F 46.4 °F 77% 30.02 in 7.0 mi ESE 18.4 mph 24.2 mph N/A   Overcast
7:16 AM 53.6 °F 46.4 °F 77% 30.01 in 7.0 mi ESE 16.1 mph 25.3 mph N/A   Overcast
7:36 AM 53.6 °F 46.4 °F 77% 30.00 in 7.0 mi ESE 18.4 mph 24.2 mph N/A   Overcast
7:56 AM 53.6 °F 46.4 °F 77% 30.00 in 7.0 mi ESE 17.3 mph 24.2 mph N/A   Overcast
8:16 AM 53.6 °F 46.4 °F 77% 30.00 in 7.0 mi SE 12.7 mph 23.0 mph N/A   Overcast
8:36 AM 53.6 °F 46.4 °F 77% 30.00 in 7.0 mi SE 13.8 mph 20.7 mph N/A   Overcast
8:56 AM 53.6 °F 48.2 °F 82% 29.99 in 7.0 mi ESE 17.3 mph 23.0 mph N/A   Overcast
9:16 AM 53.6 °F 48.2 °F 82% 29.99 in 7.0 mi ESE 16.1 mph 24.2 mph N/A   Overcast
9:36 AM 53.6 °F 48.2 °F 82% 30.00 in 7.0 mi SSE 9.2 mph 20.7 mph N/A   Overcast
9:56 AM 53.6 °F 48.2 °F 82% 30.01 in 7.0 mi SE 10.4 mph - N/A   Overcast
10:16 AM 53.6 °F 48.2 °F 82% 30.01 in 7.0 mi SE 6.9 mph - N/A   Overcast
10:36 AM 53.6 °F 48.2 °F 82% 30.00 in 7.0 mi SSE 8.1 mph - N/A   Overcast
10:56 AM 53.6 °F 48.2 °F 82% 30.01 in 7.0 mi Calm Calm - N/A   Overcast
11:16 AM 53.6 °F 48.2 °F 82% 30.01 in 7.0 mi NW 5.8 mph - N/A   Overcast
11:36 AM 53.6 °F 48.2 °F 82% 30.01 in 7.0 mi NW 9.2 mph - N/A   Overcast
11:56 AM 53.6 °F 48.2 °F 82% 30.03 in 7.0 mi NW 3.5 mph - N/A   Overcast
12:16 PM 53.6 °F 48.2 °F 82% 30.04 in 7.0 mi West 6.9 mph - N/A   Overcast
12:36 PM 53.6 °F 48.2 °F 82% 30.04 in 7.0 mi NW 9.2 mph - N/A   Overcast
12:56 PM 53.6 °F 50.0 °F 88% 30.05 in 4.0 mi North 6.9 mph - N/A   Overcast
1:16 PM 53.6 °F 50.0 °F 88% 30.05 in 4.0 mi Calm Calm - N/A   Overcast
1:36 PM 53.6 °F 50.0 °F 88% 30.06 in 4.0 mi NW 5.8 mph - N/A   Overcast
1:56 PM 53.6 °F 50.0 °F 88% 30.06 in 4.0 mi West 5.8 mph - N/A   Overcast
2:16 PM 53.6 °F 50.0 °F 88% 30.06 in 7.0 mi North 3.5 mph - N/A   Overcast
2:36 PM 55.4 °F 50.0 °F 82% 30.07 in 7.0 mi West 8.1 mph - N/A   Overcast
2:56 PM 55.4 °F 51.8 °F 88% 30.07 in 7.0 mi WNW 5.8 mph - N/A   Overcast
3:16 PM 53.6 °F 51.8 °F 94% 30.08 in 7.0 mi NNW 4.6 mph - N/A   Overcast
3:36 PM 53.6 °F 50.0 °F 88% 30.08 in 7.0 mi NW 8.1 mph - N/A   Overcast
3:56 PM 51.8 °F 48.2 °F 88% 30.08 in 5.0 mi NW 6.9 mph - N/A   Overcast
4:16 PM 51.8 °F 48.2 °F 88% 30.08 in 5.0 mi NNW 5.8 mph - N/A   Overcast
4:36 PM 53.6 °F 50.0 °F 88% 30.08 in 5.0 mi West 3.5 mph - N/A   Overcast
4:56 PM 53.6 °F 50.0 °F 88% 30.09 in 5.0 mi Calm Calm - N/A   Overcast
5:16 PM 53.6 °F 50.0 °F 88% 30.09 in 5.0 mi West 3.5 mph - N/A   Overcast
5:36 PM 53.6 °F 50.0 °F 88% 30.09 in 5.0 mi NNE 3.5 mph - N/A   Overcast
5:56 PM 53.6 °F 50.0 °F 88% 30.09 in 5.0 mi Calm Calm - N/A   Overcast
6:16 PM 53.6 °F 51.8 °F 94% 30.09 in 10.0 mi Calm Calm - N/A   Overcast
6:36 PM 53.6 °F 50.0 °F 88% 30.10 in 10.0 mi NE 4.6 mph - N/A   Overcast
6:56 PM 53.6 °F 50.0 °F 88% 30.10 in 5.0 mi North 3.5 mph - N/A   Overcast
7:16 PM 53.6 °F 51.8 °F 94% 30.09 in 5.0 mi NE 6.9 mph - N/A   Overcast
7:36 PM 53.6 °F 50.0 °F 88% 30.10 in 5.0 mi South 3.5 mph - N/A   Overcast
7:56 PM 53.6 °F 51.8 °F 94% 30.10 in 10.0 mi Calm Calm - N/A   Overcast
8:16 PM 53.6 °F 50.0 °F 88% 30.09 in 10.0 mi East 6.9 mph - N/A   Overcast
8:36 PM 53.6 °F 50.0 °F 88% 30.10 in 10.0 mi NW 3.5 mph - N/A   Overcast
8:56 PM 53.6 °F 51.8 °F 94% 30.10 in 10.0 mi ENE 5.8 mph - N/A   Overcast
9:16 PM 53.6 °F 51.8 °F 94% 30.09 in 10.0 mi East 4.6 mph - N/A   Overcast
9:36 PM 53.6 °F 51.8 °F 94% 30.09 in 10.0 mi SSW 4.6 mph - N/A   Overcast
9:56 PM 55.4 °F 51.8 °F 88% 30.09 in 10.0 mi NNW 4.6 mph - N/A   Overcast
10:16 PM 55.4 °F 51.8 °F 88% 30.08 in 10.0 mi NNW 6.9 mph - N/A   Overcast
10:36 PM 53.6 °F 50.0 °F 88% 30.09 in 10.0 mi NE 4.6 mph - N/A   Overcast
10:56 PM 53.6 °F 50.0 °F 88% 30.08 in 10.0 mi WNW 5.8 mph - N/A   Overcast
11:16 PM 53.6 °F 51.8 °F 94% 30.08 in 9.0 mi Calm Calm - N/A   Overcast
11:36 PM 53.6 °F 51.8 °F 94% 30.08 in 9.0 mi Calm Calm - N/A   Overcast
11:56 PM 53.6 °F 51.8 °F 94% 30.07 in 7.0 mi West 4.6 mph - N/A   Overcast